sensor_id;sensor_type;location;lat;lon;timestamp;P1;durP1;ratioP1;P2;durP2;ratioP2
1959;SDS011;980;43.794;11.212;2023-03-03T14:49:29;17.00;;;13.20;;
1959;SDS011;980;43.794;11.212;2023-03-03T14:52:00;17.25;;;17.25;;
1959;SDS011;980;43.794;11.212;2023-03-03T14:54:28;18.60;;;15.20;;
1959;SDS011;980;43.794;11.212;2023-03-03T14:59:23;14.00;;;14.00;;
1959;SDS011;980;43.794;11.212;2023-03-03T15:04:35;13.25;;;12.75;;
1959;SDS011;980;43.794;11.212;2023-03-03T15:07:03;17.50;;;13.50;;
1959;SDS011;980;43.794;11.212;2023-03-03T15:09:38;19.50;;;18.00;;
1959;SDS011;980;43.794;11.212;2023-03-03T15:14:45;14.50;;;10.75;;
1959;SDS011;980;43.794;11.212;2023-03-03T15:17:33;11.25;;;11.00;;
1959;SDS011;980;43.794;11.212;2023-03-03T15:20:08;8.00;;;8.00;;
1959;SDS011;980;43.794;11.212;2023-03-03T15:22:42;11.00;;;11.00;;
1959;SDS011;980;43.794;11.212;2023-03-03T15:27:43;15.00;;;13.00;;
1959;SDS011;980;43.794;11.212;2023-03-03T15:35:04;13.50;;;10.75;;
1959;SDS011;980;43.794;11.212;2023-03-03T15:40:12;12.00;;;9.50;;
1959;SDS011;980;43.794;11.212;2023-03-03T15:43:27;10.75;;;7.25;;
1959;SDS011;980;43.794;11.212;2023-03-03T15:47:55;11.50;;;10.00;;
1959;SDS011;980;43.794;11.212;2023-03-03T15:52:54;13.40;;;13.20;;
1959;SDS011;980;43.794;11.212;2023-03-03T16:10:21;12.50;;;10.75;;
1959;SDS011;980;43.794;11.212;2023-03-03T16:17:42;13.75;;;11.25;;
1959;SDS011;980;43.794;11.212;2023-03-03T16:27:32;16.50;;;12.00;;
1959;SDS011;980;43.794;11.212;2023-03-03T16:50:22;11.25;;;9.75;;
1959;SDS011;980;43.794;11.212;2023-03-03T17:00:28;12.75;;;10.75;;
1959;SDS011;980;43.794;11.212;2023-03-03T17:05:34;14.75;;;10.00;;
1959;SDS011;980;43.794;11.212;2023-03-03T17:08:07;14.25;;;12.75;;
1959;SDS011;980;43.794;11.212;2023-03-03T17:10:36;17.25;;;14.25;;
1959;SDS011;980;43.794;11.212;2023-03-03T17:18:32;18.50;;;11.50;;
1959;SDS011;980;43.794;11.212;2023-03-03T17:21:00;12.25;;;10.25;;
1959;SDS011;980;43.794;11.212;2023-03-03T17:35:56;13.25;;;13.25;;
1959;SDS011;980;43.794;11.212;2023-03-03T17:58:02;13.20;;;12.40;;
1959;SDS011;980;43.794;11.212;2023-03-03T18:29:35;18.60;;;17.20;;
1959;SDS011;980;43.794;11.212;2023-03-03T18:32:02;20.60;;;19.60;;
1959;SDS011;980;43.794;11.212;2023-03-03T18:36:57;25.25;;;25.25;;
1959;SDS011;980;43.794;11.212;2023-03-03T18:39:39;28.25;;;23.00;;
1959;SDS011;980;43.794;11.212;2023-03-03T18:44:23;20.25;;;14.50;;
1959;SDS011;980;43.794;11.212;2023-03-03T18:46:49;20.75;;;13.50;;
1959;SDS011;980;43.794;11.212;2023-03-03T18:49:15;17.25;;;14.00;;
1959;SDS011;980;43.794;11.212;2023-03-03T19:04:39;22.50;;;18.00;;
1959;SDS011;980;43.794;11.212;2023-03-03T19:18:02;21.75;;;18.75;;
1959;SDS011;980;43.794;11.212;2023-03-03T19:20:38;25.25;;;23.50;;
1959;SDS011;980;43.794;11.212;2023-03-03T19:23:05;21.50;;;18.25;;
1959;SDS011;980;43.794;11.212;2023-03-03T19:25:32;44.33;;;37.33;;
1959;SDS011;980;43.794;11.212;2023-03-03T19:30:43;21.25;;;16.25;;
1959;SDS011;980;43.794;11.212;2023-03-03T19:33:27;20.00;;;17.25;;
1959;SDS011;980;43.794;11.212;2023-03-03T19:41:09;16.75;;;15.75;;
1959;SDS011;980;43.794;11.212;2023-03-03T19:43:56;20.50;;;18.25;;
1959;SDS011;980;43.794;11.212;2023-03-03T20:06:50;19.50;;;18.00;;
1959;SDS011;980;43.794;11.212;2023-03-03T20:09:32;18.25;;;15.00;;
1959;SDS011;980;43.794;11.212;2023-03-03T20:14:46;17.75;;;13.50;;
1959;SDS011;980;43.794;11.212;2023-03-03T20:22:18;16.00;;;12.50;;
1959;SDS011;980;43.794;11.212;2023-03-03T20:30:07;24.75;;;21.75;;
1959;SDS011;980;43.794;11.212;2023-03-03T20:35:20;33.00;;;27.00;;
1959;SDS011;980;43.794;11.212;2023-03-03T20:38:04;27.25;;;24.50;;
1959;SDS011;980;43.794;11.212;2023-03-03T20:40:38;28.25;;;27.00;;
1959;SDS011;980;43.794;11.212;2023-03-03T20:58:06;25.67;;;24.67;;
1959;SDS011;980;43.794;11.212;2023-03-03T21:00:37;19.33;;;16.33;;
1959;SDS011;980;43.794;11.212;2023-03-03T21:03:08;34.33;;;27.00;;
1959;SDS011;980;43.794;11.212;2023-03-03T21:05:36;34.00;;;27.33;;
1959;SDS011;980;43.794;11.212;2023-03-03T21:08:03;26.33;;;24.00;;
1959;SDS011;980;43.794;11.212;2023-03-03T21:10:30;34.00;;;28.67;;
1959;SDS011;980;43.794;11.212;2023-03-03T21:12:56;29.33;;;27.00;;
1959;SDS011;980;43.794;11.212;2023-03-03T21:15:29;32.33;;;23.33;;
1959;SDS011;980;43.794;11.212;2023-03-03T21:17:56;28.00;;;24.33;;
1959;SDS011;980;43.794;11.212;2023-03-03T21:20:34;21.33;;;21.33;;
1959;SDS011;980;43.794;11.212;2023-03-03T21:23:00;29.50;;;26.50;;
1959;SDS011;980;43.794;11.212;2023-03-03T21:31:03;20.75;;;17.50;;
1959;SDS011;980;43.794;11.212;2023-03-03T21:33:49;17.00;;;15.00;;
1959;SDS011;980;43.794;11.212;2023-03-03T21:36:43;23.25;;;21.00;;
1959;SDS011;980;43.794;11.212;2023-03-03T21:39:00;26.25;;;20.50;;
1959;SDS011;980;43.794;11.212;2023-03-03T21:41:26;27.00;;;23.00;;
1959;SDS011;980;43.794;11.212;2023-03-03T21:43:51;8.67;;;8.67;;
1959;SDS011;980;43.794;11.212;2023-03-03T21:46:21;21.25;;;20.50;;
1959;SDS011;980;43.794;11.212;2023-03-03T21:48:47;25.00;;;21.00;;
1959;SDS011;980;43.794;11.212;2023-03-03T21:51:12;23.75;;;18.25;;
1959;SDS011;980;43.794;11.212;2023-03-03T21:53:38;20.75;;;17.75;;
1959;SDS011;980;43.794;11.212;2023-03-03T21:56:04;29.00;;;20.50;;
1959;SDS011;980;43.794;11.212;2023-03-03T21:58:29;22.25;;;17.00;;
1959;SDS011;980;43.794;11.212;2023-03-03T22:00:54;13.25;;;13.00;;
1959;SDS011;980;43.794;11.212;2023-03-03T22:03:20;23.50;;;17.00;;
1959;SDS011;980;43.794;11.212;2023-03-03T22:05:45;24.50;;;17.00;;
1959;SDS011;980;43.794;11.212;2023-03-03T22:08:12;20.75;;;16.75;;
1959;SDS011;980;43.794;11.212;2023-03-03T22:10:38;15.50;;;15.50;;
1959;SDS011;980;43.794;11.212;2023-03-03T22:13:03;17.00;;;14.00;;
1959;SDS011;980;43.794;11.212;2023-03-03T22:15:28;29.33;;;19.33;;
1959;SDS011;980;43.794;11.212;2023-03-03T22:17:57;32.50;;;23.00;;
1959;SDS011;980;43.794;11.212;2023-03-03T22:20:22;42.67;;;34.33;;
1959;SDS011;980;43.794;11.212;2023-03-03T22:22:47;26.00;;;24.33;;
1959;SDS011;980;43.794;11.212;2023-03-03T22:25:13;23.25;;;14.75;;
1959;SDS011;980;43.794;11.212;2023-03-03T22:27:38;17.25;;;16.00;;
1959;SDS011;980;43.794;11.212;2023-03-03T22:30:03;16.00;;;14.00;;
1959;SDS011;980;43.794;11.212;2023-03-03T22:32:29;17.50;;;14.00;;
1959;SDS011;980;43.794;11.212;2023-03-03T22:34:54;12.50;;;12.50;;
1959;SDS011;980;43.794;11.212;2023-03-03T22:37:19;12.75;;;12.75;;
1959;SDS011;980;43.794;11.212;2023-03-03T22:39:45;13.75;;;13.25;;
1959;SDS011;980;43.794;11.212;2023-03-03T22:42:10;18.75;;;13.50;;
1959;SDS011;980;43.794;11.212;2023-03-03T22:44:35;24.00;;;15.75;;
1959;SDS011;980;43.794;11.212;2023-03-03T22:47:00;14.75;;;13.50;;
1959;SDS011;980;43.794;11.212;2023-03-03T22:49:26;17.25;;;15.25;;
1959;SDS011;980;43.794;11.212;2023-03-03T22:51:51;17.75;;;13.00;;
1959;SDS011;980;43.794;11.212;2023-03-03T22:54:17;16.75;;;13.50;;
1959;SDS011;980;43.794;11.212;2023-03-03T22:56:42;16.00;;;16.00;;
1959;SDS011;980;43.794;11.212;2023-03-03T22:59:07;15.50;;;13.50;;
1959;SDS011;980;43.794;11.212;2023-03-03T23:01:32;10.50;;;10.50;;
1959;SDS011;980;43.794;11.212;2023-03-03T23:03:58;10.25;;;7.00;;
1959;SDS011;980;43.794;11.212;2023-03-03T23:06:23;11.00;;;8.00;;
1959;SDS011;980;43.794;11.212;2023-03-03T23:08:48;13.00;;;13.00;;
1959;SDS011;980;43.794;11.212;2023-03-03T23:11:13;15.00;;;13.75;;
1959;SDS011;980;43.794;11.212;2023-03-03T23:13:38;13.00;;;13.00;;
1959;SDS011;980;43.794;11.212;2023-03-03T23:16:04;10.75;;;10.75;;
1959;SDS011;980;43.794;11.212;2023-03-03T23:18:29;12.50;;;10.75;;
1959;SDS011;980;43.794;11.212;2023-03-03T23:20:55;7.00;;;3.50;;
1959;SDS011;980;43.794;11.212;2023-03-03T23:23:20;3.75;;;2.50;;
1959;SDS011;980;43.794;11.212;2023-03-03T23:25:46;9.50;;;7.75;;
1959;SDS011;980;43.794;11.212;2023-03-03T23:28:11;7.00;;;4.50;;
1959;SDS011;980;43.794;11.212;2023-03-03T23:30:39;3.00;;;2.00;;
1959;SDS011;980;43.794;11.212;2023-03-03T23:33:04;2.00;;;2.00;;
1959;SDS011;980;43.794;11.212;2023-03-03T23:35:30;1.00;;;1.00;;
1959;SDS011;980;43.794;11.212;2023-03-03T23:37:55;4.00;;;2.00;;
1959;SDS011;980;43.794;11.212;2023-03-03T23:40:20;2.00;;;2.00;;
1959;SDS011;980;43.794;11.212;2023-03-03T23:42:46;2.50;;;1.50;;
1959;SDS011;980;43.794;11.212;2023-03-03T23:45:11;2.00;;;2.00;;
1959;SDS011;980;43.794;11.212;2023-03-03T23:47:37;1.00;;;1.00;;
1959;SDS011;980;43.794;11.212;2023-03-03T23:50:03;1.00;;;1.00;;
1959;SDS011;980;43.794;11.212;2023-03-03T23:52:28;2.00;;;2.00;;
1959;SDS011;980;43.794;11.212;2023-03-03T23:54:53;4.75;;;2.00;;
1959;SDS011;980;43.794;11.212;2023-03-03T23:57:18;5.50;;;1.00;;
1959;SDS011;980;43.794;11.212;2023-03-03T23:59:44;2.00;;;1.00;;
